Airfield :
LOGIN :

Register | Disclaimer

   EN    FR    IT 

 










Legend :    VFR   Marginal VFR   IFR   Intensive IFR   Very Intensive IFR
Visi :
Ceiling :
>= 8 km
>= 3000ft
5 to 8 km
1000 to 3000 ft
1500m to 5 km
500 to 1000 ft
800 to 1500m
200 to 500 ft
< 800m
< 200 ft
Symbols :   Thunderstorms  Fog  Heavy snow  Heavy precipitations  Wind > 20 kt
SIGMETs :     Misc.  Thunderstorms  Icing  Turbulence  Mountain Waves  Volcanic Ashes






- Airport Elevation : 1516 ft
- IATA code : AGB


EDMA - Augsburg

CURRENT METAR :
  • 280420Z AUTO 28015KT 9999 // FEW004/// SCT014/// OVC044/// 01/M01 Q1014

EXPIRED METARs :
  • 280350Z AUTO 27013KT 9999 // FEW010/// BKN015/// OVC018/// 01/M01 Q1014
  • 280320Z AUTO 27016KT 9999 // SCT013/// BKN017/// BKN023/// 01/M01 Q1013
  • 280250Z AUTO 27017KT 9999 // BKN011/// BKN020/// 01/M01 Q1012
  • 280220Z AUTO 27015KT 3900 // BKN010/// OVC016/// 00/M00 Q1011
  • 280150Z AUTO 27015KT 7000 // BKN009/// OVC018/// 01/M00 Q1010

Expired Forecast.



MET'MAP, your aeronautical weather chart ! - Copyright ORBIFLY December 2007 - Disclaimer

ORBIFLY MET'MAP TEAM :

Programming & Development : Alexandra Zaïnal
Concept & original design : Baudouin d'Aumeries
Assistance for programming : Marc-Olivier Méhu
Technical & hardware support : Manuel Goepfert

Contact : metmap@orbifly.com




SOURCES & CREDITS :

   NOAA